createdAt,value
2022-08-31T00:00:19.041Z,99590.59
2022-08-31T00:03:04.373Z,99601.47
2022-08-31T00:05:31.267Z,99610.66
2022-08-31T00:07:58.106Z,99608.25
2022-08-31T00:10:32.966Z,99607.75
2022-08-31T00:13:05.072Z,99606.38
2022-08-31T00:15:35.359Z,99608.44
2022-08-31T00:18:02.668Z,99602.63
2022-08-31T00:20:33.839Z,99608.19
2022-08-31T00:23:05.922Z,99604.19
2022-08-31T00:25:34.469Z,99603.38
2022-08-31T00:28:02.209Z,99610.75
2022-08-31T00:30:29.767Z,99605.63
2022-08-31T00:32:58.355Z,99607.50
2022-08-31T00:35:28.139Z,99614.72
2022-08-31T00:37:55.538Z,99613.91
2022-08-31T00:40:23.816Z,99614.88
2022-08-31T00:42:50.930Z,99616.69
2022-08-31T00:45:17.981Z,99614.19
2022-08-31T00:47:44.772Z,99621.38
2022-08-31T00:50:15.055Z,99618.72
2022-08-31T00:52:48.401Z,99619.69
2022-08-31T00:55:23.355Z,99617.88
2022-08-31T00:57:55.815Z,99617.94
2022-08-31T01:00:26.548Z,99614.34
2022-08-31T01:02:55.086Z,99614.28
2022-08-31T01:05:22.203Z,99614.28
2022-08-31T01:07:50.430Z,99606.31
2022-08-31T01:10:20.782Z,99609.81
2022-08-31T01:12:50.800Z,99614.28
2022-08-31T01:15:18.228Z,99615.22
2022-08-31T01:17:48.352Z,99609.97
2022-08-31T01:20:48.657Z,99604.91
2022-08-31T01:23:25.013Z,99612.44
2022-08-31T01:25:55.487Z,99613.63
2022-08-31T01:28:22.874Z,99610.44
2022-08-31T01:31:06.152Z,99606.34
2022-08-31T01:33:35.148Z,99610.31
2022-08-31T01:36:02.090Z,99613.41
2022-08-31T01:39:04.749Z,99612.84
2022-08-31T01:41:31.965Z,99615.91
2022-08-31T01:44:00.597Z,99608.16
2022-08-31T01:46:28.787Z,99610.97
2022-08-31T01:48:55.664Z,99616.44
2022-08-31T01:51:23.112Z,99611.28
2022-08-31T01:53:52.692Z,99605.22
2022-08-31T01:56:24.750Z,99606.06
2022-08-31T01:58:51.747Z,99605.06
2022-08-31T02:01:56.407Z,99601.22
2022-08-31T02:04:27.148Z,99604.56
2022-08-31T02:06:58.345Z,99601.00
2022-08-31T02:09:25.354Z,99606.22
2022-08-31T02:11:52.622Z,99605.44
2022-08-31T02:14:20.742Z,99603.78
2022-08-31T02:16:49.524Z,99599.59
2022-08-31T02:19:16.757Z,99601.53
2022-08-31T02:21:43.742Z,99599.03
2022-08-31T02:24:12.462Z,99600.06
2022-08-31T02:26:40.507Z,99597.47
2022-08-31T02:29:08.065Z,99593.94
2022-08-31T02:31:36.131Z,99596.69
2022-08-31T02:34:03.207Z,99595.69
2022-08-31T02:36:32.335Z,99599.91
2022-08-31T02:39:04.062Z,99595.38
2022-08-31T02:41:33.379Z,99590.06
2022-08-31T02:44:00.137Z,99592.88
2022-08-31T02:46:27.617Z,99593.78
2022-08-31T02:49:15.042Z,99594.75
2022-08-31T02:51:43.649Z,99604.31
2022-08-31T02:54:12.495Z,99592.88
2022-08-31T02:56:40.791Z,99604.31
2022-08-31T02:59:08.531Z,99604.41
2022-08-31T03:01:36.124Z,99608.00
2022-08-31T03:04:03.669Z,99601.84
2022-08-31T03:06:31.831Z,99593.78
2022-08-31T03:09:00.308Z,99600.66
2022-08-31T03:11:27.358Z,99602.31
2022-08-31T03:13:58.450Z,99600.50
2022-08-31T03:16:26.199Z,99603.84
2022-08-31T03:18:53.261Z,99607.19
2022-08-31T03:21:20.487Z,99604.44
2022-08-31T03:23:47.358Z,99604.09
2022-08-31T03:26:14.650Z,99600.22
2022-08-31T03:28:41.713Z,99604.09
2022-08-31T03:31:40.829Z,99609.50
2022-08-31T03:34:07.906Z,99603.72
2022-08-31T03:36:34.861Z,99601.50
2022-08-31T03:39:02.162Z,99604.84
2022-08-31T03:41:29.096Z,99600.72
2022-08-31T03:43:56.903Z,99602.69
2022-08-31T03:46:24.067Z,99603.09
2022-08-31T03:48:51.236Z,99605.16
2022-08-31T03:51:20.184Z,99594.56
2022-08-31T03:53:47.259Z,99605.63
2022-08-31T03:56:18.335Z,99597.25
2022-08-31T03:58:46.271Z,99597.63
2022-08-31T04:01:28.890Z,99593.16
2022-08-31T04:04:14.454Z,99593.16
2022-08-31T04:07:07.244Z,99585.56
2022-08-31T04:09:54.297Z,99585.06
2022-08-31T04:12:53.045Z,99588.91
2022-08-31T04:15:38.492Z,99591.25
2022-08-31T04:18:24.190Z,99590.22
2022-08-31T04:20:50.975Z,99596.84
2022-08-31T04:23:18.126Z,99582.03
2022-08-31T04:25:51.341Z,99588.03
2022-08-31T04:28:18.270Z,99585.63
2022-08-31T04:30:45.413Z,99583.94
2022-08-31T04:33:15.693Z,99572.13
2022-08-31T04:35:43.775Z,99580.72
2022-08-31T04:38:11.242Z,99578.56
2022-08-31T04:40:42.306Z,99573.28
2022-08-31T04:43:10.119Z,99582.56
2022-08-31T04:45:41.419Z,99568.78
2022-08-31T04:48:09.042Z,99570.09
2022-08-31T04:50:42.316Z,99570.78
2022-08-31T04:53:09.949Z,99576.28
2022-08-31T04:55:41.722Z,99575.44
2022-08-31T04:58:12.769Z,99568.00
2022-08-31T05:01:18.430Z,99573.63
2022-08-31T05:04:29.190Z,99568.91
2022-08-31T05:07:14.519Z,99569.31
2022-08-31T05:09:41.785Z,99574.59
2022-08-31T05:12:08.718Z,99577.69
2022-08-31T05:14:37.249Z,99574.63
2022-08-31T05:17:41.300Z,99575.44
2022-08-31T05:20:27.030Z,99577.97
2022-08-31T05:22:53.901Z,99581.50
2022-08-31T05:26:17.012Z,99581.59
2022-08-31T05:28:43.882Z,99580.72
2022-08-31T05:31:30.179Z,99569.97
2022-08-31T05:34:00.897Z,99577.66
2022-08-31T05:36:54.490Z,99579.63
2022-08-31T05:39:21.716Z,99583.88
2022-08-31T05:41:48.848Z,99581.25
2022-08-31T05:44:17.181Z,99588.28
2022-08-31T05:46:44.964Z,99584.44
2022-08-31T05:49:39.064Z,99581.63
2022-08-31T05:52:26.978Z,99584.25
2022-08-31T05:54:54.515Z,99590.41
2022-08-31T05:57:24.549Z,99584.75
2022-08-31T05:59:53.022Z,99586.56
2022-08-31T06:02:21.177Z,99581.06
2022-08-31T06:04:48.548Z,99587.41
2022-08-31T06:07:20.255Z,99582.38
2022-08-31T06:09:53.723Z,99572.88
2022-08-31T06:12:25.418Z,99578.03
2022-08-31T06:15:11.043Z,99578.03
2022-08-31T06:17:57.741Z,99577.06
2022-08-31T06:20:26.073Z,99570.41
2022-08-31T06:22:53.694Z,99578.88
2022-08-31T06:26:01.273Z,99571.09
2022-08-31T06:28:32.759Z,99580.28
2022-08-31T06:31:02.228Z,99578.81
2022-08-31T06:33:29.800Z,99578.41
2022-08-31T06:36:15.592Z,99576.56
2022-08-31T06:39:01.541Z,99589.63
2022-08-31T06:41:48.585Z,99587.00
2022-08-31T06:44:34.313Z,99593.38
2022-08-31T06:47:33.749Z,99592.94
2022-08-31T08:09:24.659Z,99577.44
2022-08-31T08:12:10.679Z,99573.41
2022-08-31T08:14:44.522Z,99570.88
2022-08-31T08:17:48.414Z,99565.91
2022-08-31T08:20:34.658Z,99564.63
2022-08-31T08:23:26.718Z,99555.13
2022-08-31T08:26:33.841Z,99552.94
2022-08-31T08:29:25.306Z,99545.59
2022-08-31T08:32:14.234Z,99543.63
2022-08-31T08:34:44.753Z,99548.22
2022-08-31T08:37:13.603Z,99535.06
2022-08-31T08:40:01.807Z,99542.06
2022-08-31T08:42:33.824Z,99531.22
2022-08-31T08:45:20.346Z,99544.78
2022-08-31T08:47:50.044Z,99546.06
2022-08-31T08:50:19.348Z,99541.38
2022-08-31T08:52:47.304Z,99536.81
2022-08-31T08:55:18.530Z,99523.06
2022-08-31T08:57:52.440Z,99544.53
2022-08-31T09:00:38.749Z,99536.09
2022-08-31T09:03:15.759Z,99541.84
2022-08-31T09:06:54.695Z,99537.19
2022-08-31T09:09:34.821Z,99539.63
2022-08-31T09:12:30.959Z,99546.59
2022-08-31T09:15:36.830Z,99542.59
2022-08-31T09:18:26.464Z,99540.44
2022-08-31T09:21:22.323Z,99550.56
2022-08-31T09:24:08.273Z,99544.59
2022-08-31T09:27:18.709Z,99535.53
2022-08-31T09:29:56.585Z,99536.00
2022-08-31T09:33:05.546Z,99537.28
2022-08-31T09:35:56.699Z,99537.19
2022-08-31T09:38:39.630Z,99540.47
2022-08-31T09:41:33.653Z,99543.22
2022-08-31T09:44:31.687Z,99547.22
2022-08-31T09:47:02.897Z,99546.28
2022-08-31T09:49:37.489Z,99545.44
2022-08-31T09:52:49.330Z,99538.81
2022-08-31T09:55:46.944Z,99534.66
2022-08-31T09:58:14.631Z,99538.78
2022-08-31T10:00:44.921Z,99540.88
2022-08-31T10:03:19.093Z,99534.34
2022-08-31T10:05:48.847Z,99544.00
2022-08-31T10:08:19.492Z,99541.22
2022-08-31T10:10:49.638Z,99551.06
2022-08-31T10:13:22.120Z,99546.34
2022-08-31T10:16:01.225Z,99539.16
2022-08-31T10:18:39.632Z,99535.31
2022-08-31T10:21:16.237Z,99539.66
2022-08-31T10:24:15.179Z,99531.06
2022-08-31T10:27:05.369Z,99541.78
2022-08-31T10:30:01.181Z,99539.50
2022-08-31T10:32:42.413Z,99537.56
2022-08-31T10:36:10.811Z,99548.38
2022-08-31T10:38:41.698Z,99539.34
2022-08-31T10:41:42.366Z,99539.41
2022-08-31T10:44:52.263Z,99532.53
2022-08-31T10:47:33.074Z,99527.84
2022-08-31T10:50:29.735Z,99522.81
2022-08-31T10:53:45.992Z,99526.41
2022-08-31T10:56:37.485Z,99527.13
2022-08-31T10:59:30.845Z,99525.69
2022-08-31T11:03:02.080Z,99521.59
2022-08-31T11:05:51.384Z,99512.63
2022-08-31T11:08:49.982Z,99516.03
2022-08-31T11:12:05.034Z,99512.44
2022-08-31T11:15:09.875Z,99510.38
2022-08-31T11:18:14.759Z,99504.16
2022-08-31T11:21:06.687Z,99502.34
2022-08-31T11:24:20.606Z,99505.53
2022-08-31T11:26:57.130Z,99497.41
2022-08-31T11:30:04.994Z,99493.84
2022-08-31T11:33:14.342Z,99488.97
2022-08-31T11:36:08.871Z,99486.78
2022-08-31T11:39:06.357Z,99486.63
2022-08-31T11:41:47.723Z,99488.88
2022-08-31T11:44:34.284Z,99492.84
2022-08-31T11:47:06.917Z,99493.59
2022-08-31T11:49:51.706Z,99496.09
2022-08-31T11:52:38.597Z,99490.91
2022-08-31T11:55:52.229Z,99497.63
2022-08-31T11:58:23.573Z,99486.28
2022-08-31T12:00:58.774Z,99484.41
2022-08-31T12:04:11.548Z,99477.41
2022-08-31T12:07:22.730Z,99474.31
2022-08-31T12:10:14.122Z,99463.91
2022-08-31T12:13:26.083Z,99468.50
2022-08-31T12:16:18.025Z,99477.28
2022-08-31T12:19:34.167Z,99475.34
2022-08-31T12:22:31.424Z,99477.88
2022-08-31T12:25:20.450Z,99476.28
2022-08-31T12:28:10.893Z,99483.72
2022-08-31T12:30:47.828Z,99477.78
2022-08-31T12:33:27.779Z,99474.06
2022-08-31T12:36:10.581Z,99474.31
2022-08-31T12:39:10.678Z,99478.53
2022-08-31T12:41:45.749Z,99481.13
2022-08-31T12:44:23.463Z,99487.13
2022-08-31T12:47:24.175Z,99492.25
2022-08-31T12:50:10.319Z,99494.16
2022-08-31T12:52:46.916Z,99489.19
2022-08-31T12:55:51.113Z,99489.91
2022-08-31T12:58:36.722Z,99483.19
2022-08-31T13:01:10.600Z,99484.34
2022-08-31T13:03:41.390Z,99478.31
2022-08-31T13:06:15.774Z,99480.94
2022-08-31T13:09:06.826Z,99479.31
2022-08-31T13:11:53.658Z,99477.22
2022-08-31T13:14:25.150Z,99470.63
2022-08-31T13:17:15.453Z,99472.75
2022-08-31T13:20:01.726Z,99466.81
2022-08-31T13:22:39.614Z,99468.00
2022-08-31T13:25:36.355Z,99464.00
2022-08-31T13:28:38.312Z,99466.19
2022-08-31T13:31:28.594Z,99464.75
2022-08-31T13:34:01.938Z,99468.09
2022-08-31T13:36:36.050Z,99474.91
2022-08-31T13:39:31.661Z,99486.19
2022-08-31T13:42:09.287Z,99492.50
2022-08-31T13:44:40.460Z,99501.69
2022-08-31T13:47:20.390Z,99498.47
2022-08-31T13:49:49.952Z,99503.22
2022-08-31T13:52:22.580Z,99503.72
2022-08-31T13:55:06.123Z,99508.81
2022-08-31T13:57:38.523Z,99506.63
2022-08-31T14:00:33.329Z,99503.03
2022-08-31T14:03:33.298Z,99509.94
2022-08-31T14:06:23.882Z,99510.66
2022-08-31T14:08:55.235Z,99513.91
2022-08-31T14:11:22.483Z,99511.38
2022-08-31T14:13:50.889Z,99512.72
2022-08-31T14:16:32.575Z,99511.53
2022-08-31T14:19:00.587Z,99513.00
2022-08-31T14:21:31.120Z,99512.78
2022-08-31T14:24:03.505Z,99514.63
2022-08-31T14:26:34.063Z,99503.88
2022-08-31T14:29:10.714Z,99500.97
2022-08-31T14:31:49.287Z,99507.28
2022-08-31T14:34:25.513Z,99507.94
2022-08-31T14:37:02.592Z,99497.25
2022-08-31T14:39:31.453Z,99495.19
2022-08-31T14:42:14.549Z,99500.31
2022-08-31T14:44:46.096Z,99506.34
2022-08-31T14:47:13.217Z,99503.19
2022-08-31T14:49:45.635Z,99507.06
2022-08-31T14:52:13.230Z,99505.28
2022-08-31T14:54:41.109Z,99499.34
2022-08-31T14:57:12.421Z,99501.59
2022-08-31T14:59:43.067Z,99495.50
2022-08-31T15:02:12.990Z,99505.81
2022-08-31T15:04:45.534Z,99505.94
2022-08-31T15:07:14.559Z,99492.88
2022-08-31T15:09:43.251Z,99497.28
2022-08-31T15:12:14.935Z,99505.50
2022-08-31T15:14:44.963Z,99508.84
2022-08-31T15:17:19.814Z,99501.69
2022-08-31T15:19:50.382Z,99493.72
2022-08-31T15:22:18.305Z,99495.50
2022-08-31T15:24:45.544Z,99496.81
2022-08-31T15:27:15.462Z,99492.72
2022-08-31T15:29:45.673Z,99498.94
2022-08-31T15:32:16.918Z,99489.06
2022-08-31T15:34:53.621Z,99497.09
2022-08-31T15:37:21.568Z,99488.28
2022-08-31T15:39:50.765Z,99490.56
2022-08-31T15:42:22.953Z,99496.69
2022-08-31T15:44:57.323Z,99495.00
2022-08-31T15:47:45.535Z,99493.81
2022-08-31T15:50:13.346Z,99496.19
2022-08-31T15:52:51.705Z,99496.13
2022-08-31T15:55:23.932Z,99501.75
2022-08-31T15:57:54.578Z,99498.69
2022-08-31T16:00:27.200Z,99507.84
2022-08-31T16:02:57.453Z,99508.75
2022-08-31T16:05:28.335Z,99509.69
2022-08-31T16:07:55.696Z,99502.91
2022-08-31T16:10:23.908Z,99506.94
2022-08-31T16:12:52.218Z,99510.25
2022-08-31T16:15:22.247Z,99510.69
2022-08-31T16:17:51.685Z,99514.06
2022-08-31T16:20:18.562Z,99517.19
2022-08-31T16:22:45.671Z,99511.53
2022-08-31T16:25:14.457Z,99516.44
2022-08-31T16:27:43.574Z,99515.31
2022-08-31T16:30:12.336Z,99521.03
2022-08-31T16:32:39.543Z,99526.22
2022-08-31T16:35:07.145Z,99524.03
2022-08-31T16:37:35.529Z,99529.34
2022-08-31T16:40:03.452Z,99526.38
2022-08-31T16:42:30.460Z,99526.38
2022-08-31T16:45:01.755Z,99524.66
2022-08-31T16:47:29.556Z,99524.38
2022-08-31T16:50:00.704Z,99529.59
2022-08-31T16:52:29.252Z,99525.84
2022-08-31T16:54:57.503Z,99524.66
2022-08-31T16:57:27.626Z,99531.66
2022-08-31T16:59:56.632Z,99533.09
2022-08-31T17:02:24.469Z,99542.59
2022-08-31T17:04:53.460Z,99543.94
2022-08-31T17:07:24.811Z,99544.47
2022-08-31T17:09:56.578Z,99552.22
2022-08-31T17:12:26.144Z,99548.00
2022-08-31T17:14:53.374Z,99547.47
2022-08-31T17:17:22.975Z,99556.41
2022-08-31T17:19:52.219Z,99548.44
2022-08-31T17:22:26.937Z,99552.00
2022-08-31T17:24:58.237Z,99555.66
2022-08-31T17:27:26.479Z,99562.53
2022-08-31T17:29:56.051Z,99562.44
2022-08-31T17:32:25.199Z,99568.34
2022-08-31T17:34:54.504Z,99565.38
2022-08-31T17:37:36.566Z,99575.94
2022-08-31T17:40:08.252Z,99569.66
2022-08-31T17:42:35.674Z,99577.34
2022-08-31T17:45:05.962Z,99573.63
2022-08-31T17:47:33.188Z,99582.16
2022-08-31T17:50:00.292Z,99584.47
2022-08-31T17:52:27.779Z,99579.84
2022-08-31T17:54:55.343Z,99587.72
2022-08-31T17:57:25.348Z,99591.09
2022-08-31T17:59:54.921Z,99583.81
2022-08-31T18:02:32.506Z,99592.53
2022-08-31T18:05:01.316Z,99590.56
2022-08-31T18:07:29.141Z,99589.47
2022-08-31T18:09:56.044Z,99589.09
2022-08-31T18:12:25.703Z,99595.03
2022-08-31T18:14:53.816Z,99592.09
2022-08-31T18:17:24.251Z,99599.59
2022-08-31T18:19:51.111Z,99599.03
2022-08-31T18:22:19.849Z,99610.16
2022-08-31T18:24:46.853Z,99607.03
2022-08-31T18:27:17.283Z,99610.16
2022-08-31T18:29:45.200Z,99608.84
2022-08-31T18:32:12.790Z,99612.06
2022-08-31T18:34:47.346Z,99609.97
2022-08-31T18:37:16.289Z,99613.13
2022-08-31T18:40:05.343Z,99611.84
2022-08-31T18:42:51.965Z,99607.06
2022-08-31T18:45:19.584Z,99612.88
2022-08-31T18:48:23.703Z,99615.03
2022-08-31T18:50:46.839Z,99621.75
2022-08-31T18:53:29.575Z,99622.03
2022-08-31T18:55:59.482Z,99619.91
2022-08-31T18:58:26.447Z,99615.91
2022-08-31T19:00:58.358Z,99614.34
2022-08-31T19:03:27.498Z,99615.47
2022-08-31T19:05:54.945Z,99612.22
2022-08-31T19:08:23.094Z,99613.50
2022-08-31T19:10:51.353Z,99605.94
2022-08-31T19:13:18.388Z,99610.75
2022-08-31T19:15:45.927Z,99610.34
2022-08-31T19:18:13.249Z,99613.34
2022-08-31T19:20:40.890Z,99610.09
2022-08-31T19:23:08.275Z,99611.34
2022-08-31T19:25:43.141Z,99614.38
2022-08-31T19:28:10.144Z,99617.28
2022-08-31T19:30:38.306Z,99632.63
2022-08-31T19:33:11.495Z,99623.94
2022-08-31T19:35:38.430Z,99629.50
2022-08-31T19:38:05.848Z,99630.63
2022-08-31T19:40:39.401Z,99629.06
2022-08-31T19:45:54.677Z,99633.94
2022-08-31T19:48:23.525Z,99634.84
2022-08-31T19:50:52.130Z,99634.84
2022-08-31T19:53:22.246Z,99642.66
2022-08-31T19:55:51.601Z,99641.66
2022-08-31T19:58:26.365Z,99643.31
2022-08-31T20:01:00.681Z,99651.94
2022-08-31T20:03:28.324Z,99648.25
2022-08-31T20:05:56.994Z,99650.66
2022-08-31T20:08:23.873Z,99647.94
2022-08-31T20:10:54.739Z,99640.75
2022-08-31T20:13:25.262Z,99650.59
2022-08-31T20:15:53.002Z,99648.97
2022-08-31T20:18:20.777Z,99651.88
2022-08-31T20:20:50.440Z,99654.59
2022-08-31T20:23:21.269Z,99661.81
2022-08-31T20:25:51.150Z,99647.81
2022-08-31T20:28:26.302Z,99661.16
2022-08-31T20:30:55.333Z,99664.88
2022-08-31T20:33:22.648Z,99658.06
2022-08-31T20:35:49.404Z,99657.47
2022-08-31T20:38:17.759Z,99662.09
2022-08-31T20:40:47.444Z,99660.50
2022-08-31T20:43:15.009Z,99659.13
2022-08-31T20:45:42.509Z,99662.94
2022-08-31T20:48:28.676Z,99657.88
2022-08-31T20:50:56.522Z,99659.22
2022-08-31T20:53:35.990Z,99662.53
2022-08-31T20:56:16.906Z,99668.72
2022-08-31T20:58:45.662Z,99669.44
2022-08-31T21:01:14.205Z,99670.13
2022-08-31T21:03:41.800Z,99671.44
2022-08-31T21:06:12.193Z,99665.66
2022-08-31T21:08:42.650Z,99679.31
2022-08-31T21:11:17.853Z,99670.81
2022-08-31T21:13:46.520Z,99672.75
2022-08-31T21:16:15.172Z,99674.59
2022-08-31T21:18:42.126Z,99672.97
2022-08-31T21:21:13.081Z,99666.09
2022-08-31T21:23:40.036Z,99678.63
2022-08-31T21:26:09.888Z,99670.81
2022-08-31T21:28:40.183Z,99666.44
2022-08-31T21:31:15.748Z,99659.44
2022-08-31T21:33:46.445Z,99661.31
2022-08-31T21:36:15.260Z,99664.16
2022-08-31T21:38:43.100Z,99666.88
2022-08-31T21:41:12.341Z,99666.88
2022-08-31T21:43:40.253Z,99662.50
2022-08-31T21:46:11.993Z,99661.72
2022-08-31T21:48:41.597Z,99656.78
2022-08-31T21:51:14.422Z,99664.00
2022-08-31T21:53:42.053Z,99646.47
2022-08-31T21:56:09.478Z,99660.72
2022-08-31T21:58:36.840Z,99655.44
2022-08-31T22:01:04.738Z,99653.63
2022-08-31T22:03:36.189Z,99655.44
2022-08-31T22:06:07.635Z,99650.97
2022-08-31T22:08:35.899Z,99659.84
2022-08-31T22:11:08.201Z,99664.28
2022-08-31T22:13:37.165Z,99666.16
2022-08-31T22:16:14.098Z,99664.50
2022-08-31T22:19:06.424Z,99661.91
2022-08-31T22:21:35.291Z,99656.69
2022-08-31T22:24:07.462Z,99661.19
2022-08-31T22:26:44.413Z,99657.75
2022-08-31T22:29:13.640Z,99655.25
2022-08-31T22:31:41.440Z,99657.97
2022-08-31T22:34:10.575Z,99660.63
2022-08-31T22:36:38.129Z,99655.09
2022-08-31T22:39:12.171Z,99658.28
2022-08-31T22:41:42.233Z,99651.75
2022-08-31T22:44:13.100Z,99655.78
2022-08-31T22:46:40.337Z,99645.78
2022-08-31T22:49:09.915Z,99649.84
2022-08-31T22:51:39.383Z,99640.75
2022-08-31T22:54:07.033Z,99641.31
2022-08-31T22:56:36.642Z,99646.41
2022-08-31T22:59:09.648Z,99649.56
2022-08-31T23:01:41.924Z,99637.78
2022-08-31T23:04:12.673Z,99650.88
2022-08-31T23:06:39.787Z,99649.81
2022-08-31T23:09:10.398Z,99650.53
2022-08-31T23:11:38.276Z,99651.28
2022-08-31T23:14:10.257Z,99646.81
2022-08-31T23:16:38.691Z,99645.00
2022-08-31T23:19:10.743Z,99644.16
2022-08-31T23:21:43.090Z,99648.56
2022-08-31T23:24:12.653Z,99639.00
2022-08-31T23:26:40.767Z,99641.72
2022-08-31T23:29:09.289Z,99646.25
2022-08-31T23:31:37.914Z,99642.78
2022-08-31T23:34:09.781Z,99644.66
2022-08-31T23:36:36.560Z,99653.59
2022-08-31T23:39:04.946Z,99647.38
2022-08-31T23:41:34.830Z,99654.41
2022-08-31T23:44:09.239Z,99661.47
2022-08-31T23:46:38.107Z,99662.28
2022-08-31T23:49:08.733Z,99661.13
2022-08-31T23:51:35.865Z,99657.34
2022-08-31T23:54:07.061Z,99663.19
2022-08-31T23:56:37.398Z,99661.94
2022-08-31T23:59:09.644Z,99659.00
